Vue régionale

METAR et TAF

Jeudi 24 juin 2021 à 17h05

Visibilités horizontales observées à différents aéroports. Les observations (METAR) et prévisions aéronautiques (TAF) complètes sont disponibles en cliquant sur l’icône correspondante.

  • Luxemburg (ELLX)

    Taf: TAF ELLX 241100Z 2412/2518 03006KT 8000 SCT008 BKN015 TEMPO 2412/2420 33007KT 3000 RA BKN008 PROB30 TEMPO 2412/2418 2000 TSRA BKN008CB PROB40 TEMPO 2422/2507 VRB02KT 1200 BR BKN004 BECMG 2507/2510 27010KT=

    Metar: METAR ELLX 241450Z 33006KT 9999 -RA SCT007 SCT010 17/15 Q1019 TEMPO 4500 RA BKN008=

  • Spangdahlem (ETAD)

    Taf: TAF AMD ETAD 241400Z 2414/2518 03007KT 9000 -RA BKN010 OVC030 QNH3008INS TEMPO 2413/2418 3200 RA BR BKN007 OVC020 BECMG 2420/2421 VRB05KT 9999 NSW SCT015 BKN020 QNH3010INS BECMG 2507/2508 25008KT 9999 SCT030 QNH3011INS BECMG 2516/2517 VRB06KT 9999 BKN050 QNH3007INS TX18/2414Z TN13/2504Z=

    Metar: METAR ETAD 241456Z 36004KT 9999 BKN010 BKN020 OVC100 18/16 A3008 RMK AO2A RAE11DZB11E20 SLP171 P0000 60007 T01750157 55002 $=

  • Metz/Nancy (LFJL)

    Taf: TAF AMD LFJL 241240Z 2412/2512 33008KT 9999 FEW010 BKN045 TEMPO 2412/2422 4000 SHRA BKN010 BKN025 FEW030TCU PROB40 TEMPO 2412/2421 VRB15G25KT 3000 TSRA SCT030CB PROB30 TEMPO 2422/2506 3000 BR BKN005 PROB30 TEMPO 2422/2502 -SHRA=

    Metar: METAR LFJL 241430Z AUTO 28007KT 9999 -RA BKN013/// BKN030/// BKN038/// ///CB 18/16 Q1019 TEMPO VRB15G25KT 3000 TSRA=

  • Saarbrücken/Intl (EDDR)

    Taf: TAF EDDR 241100Z 2412/2512 06005KT 9999 BKN020 TEMPO 2412/2422 SHRA BKN020CB PROB30 TEMPO 2412/2420 4000 TSRA BKN014CB BECMG 2415/2418 33005KT BECMG 2420/2422 4000 BR BKN012 TEMPO 2422/2508 2000 -SHRA BR BKN008 BKN015CB BECMG 2503/2506 26007KT PROB30 TEMPO 2503/2506 0800 FG BKN001=

    Metar: METAR EDDR 241450Z 18003KT 150V210 9999 -SHRA FEW013 SCT018CB 16/16 Q1018 TEMPO 4000 TSRA BKN012=

  • Hahn (EDFH)

    Taf: TAF EDFH 241200Z NIL=

    Metar: METAR EDFH 241450Z VRB02KT 9000 -RA SCT003 BKN005 15/15 Q1019=

  • Ramstein (ETAR)

    Taf: TAF ETAR 241000Z 2410/2516 33009KT 8000 -SHRA SCT015 BKN020 QNH3006INS TEMPO 2412/2415 6000 -TSRA BKN015CB BECMG 2415/2416 34006KT 9000 -SHRA SCT020 BKN050 QNH3006INS BECMG 2421/2422 32006KT 9000 -SHRA BKN020 QNH3010INS TEMPO 2504/2506 6000 BR BKN015 BECMG 2507/2508 27009KT 9999 NSW SCT025 BKN060 QNH3007INS TX18/2417Z TN15/2504Z=

    Metar: METAR ETAR 241456Z 36004KT 9999 -RA SCT033 BKN043 BKN050 18/16 A3006 RMK AO2A VIS 4000 RWY08 VIS 4000 RWY09 DZB48E52RAB52 SLP178 P0000 60000 T01800163 55000 FZRANO $=

  • Nancy/Ochey (LFSO)

    Taf: TAF LFSO 241400Z 2415/2515 29005KT 9999 BKN009 TEMPO 2415/2422 2000 SHRA BKN008 BKN015CB PROB40 TEMPO 2415/2419 TSRA BECMG 2417/2419 BKN015 BECMG 2423/2501 SCT020=

    Metar: METAR LFSO 241430Z AUTO 27010KT 9999 OVC009 16/14 Q1019 TEMPO 2000 SHRA BKN008 BKN015CB=

  • Liège Bierset (EBLG)

    Taf: TAF EBLG 241134Z 2412/2518 33004KT 9999 FEW025 SCT035=

    Metar: METAR EBLG 241450Z 33006KT 280V010 9999 SCT023 18/13 Q1020 NOSIG=

  • Saint-Dizier (LFSI)

    Taf: TAF LFSI 241400Z 2415/2515 30005KT 6000 SCT015 BKN040 BKN060 TEMPO 2415/2420 2000 SHRA BKN030TCU BKN060 BKN120 BECMG 2421/2423 3000 BR TEMPO 2423/2506 0600 FG VV/// BECMG 2506/2508 9999 NSW SCT010=

    Metar: METAR LFSI 241430Z AUTO VRB02KT 2900 -RA BR FEW007/// OVC032/// ///TCU 16/15 Q1020=

  • Maastricht/Zuid Limburg (EHBK)

    Taf: TAF EHBK 241140Z 2412/2518 01005KT 9999 BKN016=

    Metar: METAR EHBK 241455Z AUTO 34008KT 300V020 9999 BKN028 OVC032 20/13 Q1019 NOSIG=

  • Köln/Köln-Bonn (EDDK)

    Taf: TAF EDDK 241100Z 2412/2518 34006KT 9999 BKN020 PROB30 TEMPO 2414/2418 SHRA SCT015CB BECMG 2501/2504 28005KT BKN008=

    Metar: METAR EDDK 241450Z 04005KT 010V070 9999 VCSH FEW020CB FEW025TCU SCT047 21/14 Q1018 TEMPO SHRA=

  • Charleroi (EBCI)

    Taf: TAF EBCI 241134Z 2412/2518 35004KT 9999 FEW025 SCT035 BECMG 2509/2511 22010KT PROB30 TEMPO 2516/2518 RA=

    Metar: METAR EBCI 241450Z 35007KT 9999 FEW020 BKN024 17/11 Q1021 NOSIG=

  • Wiesbaden (ETOU)

    Taf: TAF AMD ETOU 241411Z 2414/2518 03009KT 9000 -SHRA OVC010 QNH3006INS TEMPO 2414/2418 05010G15KT 8000 -SHRA VCTS OVC015CB BECMG 2419/2420 VRB06KT 9999 NSW BKN020 OVC060 QNH3008INS BECMG 2500/2501 VRB06KT 9999 BKN015 OVC020 QNH3008INS BECMG 2506/2507 26006KT 9999 BKN030 QNH3005INS TX18/2414Z TN15/2503Z=

    Metar: METAR ETOU 241456Z 02004KT 9999 SCT008 OVC015 18/15 A3006 RMK AO2A SLP180 60004 T01840153 57006 $=

  • Karlsruhe/Baden-Baden (EDSB)

    Taf: TAF EDSB 241100Z 2412/2512 34004KT 9999 SCT035 TEMPO 2412/2422 SHRA BKN020CB PROB30 TEMPO 2412/2420 4000 TSRA BKN014CB BECMG 2416/2419 23005KT TEMPO 2422/2508 SHRA BKN012CB PROB30 TEMPO 2500/2506 4000 BR BKN006=

    Metar: METAR EDSB 241450Z 29007KT 240V330 9999 FEW026 SCT032 22/16 Q1017=

  • Chalons/Vatry (LFOK)

    Taf: TAF LFOK 241100Z 2412/2512 35007KT 9999 BKN030 TEMPO 2412/2415 BKN013 PROB30 2500/2506 1200 MIFG BECMG 2506/2510 22010KT=

    Metar: METAR LFOK 241430Z AUTO 32012KT 9999 FEW027 SCT033 OVC039 18/13 Q1020 NOSIG=

  • Frankfurt/Main (EDDF)

    Taf: TAF EDDF 241200Z NIL=

    Metar: METAR EDDF 241450Z 01005KT 330V030 9999 SCT012 BKN048 18/16 Q1018 NOSIG=

  • Brüssel (EBBR)

    Taf: TAF EBBR 241134Z 2412/2518 35004KT 9999 FEW025 SCT035 BECMG 2509/2511 22010KT PROB30 TEMPO 2516/2518 RA=

    Metar: METAR EBBR 241450Z 36004KT 320V030 9999 BKN030 18/12 Q1020 NOSIG=

  • Düsseldorf (EDDL)

    Taf: TAF EDDL 241100Z 2412/2518 36006KT 9999 BKN020 BECMG 2500/2503 27004KT=

    Metar: METAR EDDL 241450Z 36006KT 320V040 9999 BKN034 22/13 Q1018 NOSIG=

  • Luxeuil (LFSX)

    Taf: TAF LFSX 241400Z 2415/2515 32010G20KT 9999 FEW015 SCT015CB OVC020 TEMPO 2415/2506 3000 SHRA SCT005 SCT020CB OVC030 TEMPO 2415/2503 VRB15G25KT 2000 TSRAGS SCT005 SCT010CB OVC020 BECMG 2418/2420 27010KT BECMG 2506/2508 FEW010 BKN040 FM251300 20010KT CAVOK=

    Metar: METAR LFSX 241430Z AUTO 29006KT 260V320 7000 -RA SCT015/// BKN031/// BKN050/// ///CB 16/15 Q1020=

  • Eindhoven (EHEH)

    Taf: TAF EHEH 241125Z 2412/2518 01005KT 9999 OVC028 BECMG 2419/2422 29004KT BECMG 2423/2501 VRB02KT PROB30 2501/2504 3500 BR BECMG 2504/2506 21007KT=

    Metar: METAR EHEH 241455Z AUTO 32007KT 260V030 9999 BKN031 BKN035 OVC065 18/11 Q1020 BLU NOSIG=

  • Niederrhein (EDLV)

    Taf: TAF EDLV 241100Z 2412/2512 VRB03KT 9999 BKN035 BECMG 2503/2506 25006KT=

    Metar: METAR EDLV 241450Z 32006KT 280V010 CAVOK 19/12 Q1020=

  • Dortmund/Wickede (EDLW)

    Taf: TAF EDLW 241100Z 2412/2512 03005KT 9999 BKN015 BECMG 2419/2421 VRB03KT BECMG 2500/2503 BKN009 BECMG 2503/2506 26006KT=

    Metar: METAR EDLW NIL=

  • Stuttgart/Echterdingen (EDDS)

    Taf: TAF AMD EDDS 241331Z 2413/2512 27005KT 9999 SCT030 TEMPO 2413/2420 SHRA BKN025CB PROB40 TEMPO 2413/2418 23015G30KT 3000 TSRAGR BKN012 BKN020CB TEMPO 2420/2508 SHRA BKN020CB PROB30 TEMPO 2500/2506 4000 BR BKN010=

    Metar: METAR EDDS 241450Z 26007KT 210V290 9999 FEW030 SCT045CB 22/13 Q1018 TEMPO TSRA=

  • Basel-Mühlhausen (LFSB)

    Taf: TAF LFSB 241100Z 2412/2512 25010KT 9999 SCT050 BKN200 PROB40 TEMPO 2412/2414 11006KT TEMPO 2414/2422 27015G25KT 4000 SHRA SCT040CB PROB40 TEMPO 2414/2420 2000 TSRA TEMPO 2422/2508 RA FEW010 BKN030 SCT030TCU PROB30 TEMPO 2503/2508 BKN012=

    Metar: METAR LFSB 241430Z 29009KT 250V320 9999 FEW033 SCT073 BKN230 21/14 Q1018 NOSIG=

  • Lille (LFQQ)

    Taf: TAF LFQQ 241100Z 2412/2518 34010KT 9999 BKN030 TEMPO 2412/2415 BKN013 BECMG 2420/2424 20006KT BECMG 2503/2506 OVC007 TEMPO 2506/2508 3000 RA OVC003 BECMG 2508/2510 BKN017 TEMPO 2512/2518 RA BKN013=

    Metar: METAR LFQQ 241430Z AUTO 31006KT 9999 BKN027 BKN032 BKN041 17/12 Q1021 NOSIG=

  • Paris/Charles de Gaulle (LFPG)

    Taf: TAF LFPG 241100Z 2412/2518 33010KT 9999 FEW030 BKN045 TX19/2416Z TN12/2502Z BECMG 2500/2503 22010KT PROB30 TEMPO 2515/2518 4000 -SHRA BKN040TCU=

    Metar: METAR LFPG 241430Z 30005KT 270V340 9999 FEW034 BKN053 19/10 Q1021 NOSIG=

  • Paderborn/Lippstadt (EDLP)

    Taf: TAF AMD EDLP 241222Z 2412/2512 34005KT 9999 BKN010 BECMG 2412/2415 BKN020 BECMG 2416/2419 VRB03KT BECMG 2501/2504 BKN011 TEMPO 2502/2506 4500 BR BECMG 2506/2509 29005KT=

    Metar: METAR EDLP 241450Z 05003KT 340V140 9999 FEW013 18/13 Q1019=

  • Paris/Le Bourget (LFPB)

    Taf: TAF LFPB 241200Z NIL=

    Metar: METAR LFPB 241430Z AUTO VRB03KT CAVOK 20/10 Q1021 NOSIG=

  • Rotterdam (EHRD)

    Taf: TAF EHRD 241056Z 2412/2518 32009KT 9999 SCT025 BECMG 2421/2424 18005KT BECMG 2505/2508 22010KT PROB40 TEMPO 2511/2518 6000 SHRA RA BKN014 SCT025CB=

    Metar: METAR EHRD 241455Z AUTO 28006KT 220V330 9999 NCD 19/11 Q1020 NOSIG=

  • Zürich/Kloten (LSZH)

    Taf: TAF LSZH 241425Z 2415/2521 26007KT 9999 SCT040 TX20/2415Z TN13/2504Z TX22/2515Z TEMPO 2415/2421 27010KT SHRA SCT040TCU PROB40 TEMPO 2415/2418 28015G30KT 4500 TSRA SCT040CB PROB40 2509/2517 29008KT=

    Metar: METAR LSZH 241450Z 32015KT 9999 TS FEW035CB SCT060 17/11 Q1019 TEMPO 3500 TSRA=

  • Oostende/Intl (EBOS)

    Taf: TAF EBOS 241134Z 2412/2518 32004KT 9999 SCT020 SCT030 PROB30 TEMPO 2500/2504 RA BECMG 2502/2504 21010KT PROB30 TEMPO 2505/2507 BKN012 TEMPO 2512/2518 RA BKN012 PROB40 TEMPO 2515/2518 BKN008=

    Metar: METAR EBOS 241450Z 32007KT 270V350 9999 FEW023 16/10 Q1022 NOSIG=

  • Paris/Orly (LFPO)

    Taf: TAF LFPO 241200Z NIL=

    Metar: METAR LFPO 241430Z 36005KT 330V070 9999 SCT043 BKN056 19/10 Q1021 NOSIG=

  • Beauvais (LFOB)

    Taf: TAF LFOB 241100Z 2412/2512 36007KT 9999 SCT030 TEMPO 2500/2506 1200 MIFG OVC007 BECMG 2506/2508 22010KT TEMPO 2508/2512 RA OVC007=

    Metar: METAR LFOB 241430Z AUTO 36010KT CAVOK 21/06 Q1021 NOSIG=

  • Münster/Intl (EDDG)

    Taf: TAF EDDG 241100Z 2412/2512 36005KT 9999 BKN030 BECMG 2418/2421 VRB03KT BECMG 2503/2506 24005KT=

    Metar: METAR EDDG 241450Z 32005KT 290V030 9999 SCT032 20/13 Q1019 NOSIG=

  • Illesheim (ETIK)

    Taf: TAF ETIK 241400Z 2414/2520 VRB06KT 9000 -SHRA BKN030 QNH3003INS TEMPO 2414/2420 5000 -TSRA BKN015CB BECMG 2500/2501 VRB06KT 9000 BR BKN014 QNH3005INS TEMPO 2501/2508 BKN010 TEMPO 2501/2508 BKN007 BECMG 2510/2511 VRB06KT 9999 NSW BKN030 QNH3007INS TX20/2415Z TN14/2507Z=

    Metar: METAR ETIK 241456Z AUTO 33003KT 9999 FEW012 FEW080 SCT100 21/15 A3005 RMK AO2 LTG DSNT W RAB36E48DZB48E50 SLP168 P0001 60022 T02050150 50000 $=

  • Duebendorf (LSMD)

    Taf: TAF LSMD 240925Z 2410/2516 24003KT 9999 FEW014 SCT024 TEMPO 2410/2422 SHRA BKN014 FEW040TCU PROB40 TEMPO 2412/2420 30018G30KT 4500 TSRA SCT040CB PROB40 TEMPO 2502/2505 3500 MIFG TEMPO 2510/2516 SHRA FEW045TCU=

    Metar: METAR LSMD 241450Z 32005KT 290V360 9999 FEW031 SCT059 21/14 Q1018 RMK BLU+=

  • Villacoublay (LFPV)

    Taf: TAF LFPV 241400Z 2415/2515 31008KT 9999 SCT040 BKN060 TX22/2512Z TN12/2505Z TEMPO 2513/2515 4500 -SHRA BKN040CB=

    Metar: METAR LFPV 241430Z AUTO 34007KT CAVOK 18/09 Q1022 NOSIG=

  • Payerne (LSMP)

    Taf: TAF LSMP 240925Z 2410/2516 VRB02KT 9999 FEW020 SCT080 TEMPO 2415/2418 23015G30KT 4500 TSRA SCT050CB=

    Metar: METAR LSMP 241450Z AUTO 25014KT 220V280 9999NDV FEW039 BKN076 20/13 Q1018 RMK=

  • Amsterdam/Schipol (EHAM)

    Taf: TAF EHAM 241056Z 2412/2518 33009KT 9999 SCT030 BECMG 2421/2424 18005KT BECMG 2507/2510 22010KT PROB40 TEMPO 2511/2518 6000 SHRA RA SCT014 BKN018 SCT025CB=

    Metar: METAR EHAM 241455Z VRB01KT 9999 SCT031 18/11 Q1020 NOSIG=

  • Emmen (LSME)

    Taf: TAF LSME 240925Z 2410/2516 VRB02KT 9999 FEW017 SCT077 TEMPO 2410/2422 SHRA BKN014 FEW040TCU PROB40 TEMPO 2412/2420 26018G30KT 4500 TSRA SCT040CB PROB30 TEMPO 2502/2505 3500 MIFG TEMPO 2510/2516 SHRA FEW045TCU=

    Metar: METAR LSME 241450Z NIL=

  • Friedrichshafen (EDNY)

    Taf: TAF EDNY 241100Z 2412/2512 25006KT 9999 SCT030 TEMPO 2413/2419 25015G30KT 3000 TSRA BKN020CB TEMPO 2502/2508 4000 -RA BR BKN008 PROB30 TEMPO 2510/2512 SHRA BKN020TCU=

    Metar: METAR EDNY 241450Z 00000KT CAVOK 21/14 Q1018=

  • Alpnach (LSMA)

    Taf: TAF LSMA 240925Z 2410/2516 03003KT 9999 FEW018 BKN060 BKN075 TEMPO 2410/2422 SHRA BKN014 FEW040TCU PROB40 TEMPO 2412/2420 21018G30KT 4500 TSRA SCT040CB PROB30 TEMPO 2502/2505 0800 PRFG BKN008 PROB30 TEMPO 2510/2516 SHRA FEW045TCU=

    Metar: METAR LSMA 241450Z NIL=

  • Meiringen (LSMM)

    Taf: TAF LSMM 240925Z 2410/2516 VRB01KT 9999 FEW012 SCT040 BKN045 TEMPO 2410/2422 SHRA BKN014 FEW040TCU PROB40 TEMPO 2412/2420 26018G30KT 4500 TSRA SCT040CB PROB30 TEMPO 2502/2505 0800 PRFG BKN008 PROB30 TEMPO 2510/2516 SHRA FEW045TCU=

    Metar: METAR LSMM 241450Z 25005KT 200V340 7000 3000W RA SCT025 BKN037 OVC052 16/15 Q1020=

  • Nürnberg (EDDN)

    Taf: TAF EDDN 241100Z 2412/2512 35007KT 9999 BKN020 TEMPO 2412/2420 4000 TSRA BKN020CB PROB40 TEMPO 2414/2418 25020G40KT 1200 +TSRAGR BKN012CB BECMG 2422/2424 BKN012 PROB40 TEMPO 2500/2509 3000 SHRA BKN008 BKN012CB TEMPO 2509/2512 SCT012 BKN020=

    Metar: METAR EDDN 241450Z 36009KT 320V040 9999 SCT026TCU 22/16 Q1016 NOSIG=

  • Rouen (LFOP)

    Taf: TAF LFOP 241100Z 2412/2512 35007KT 9999 BKN035 TEMPO 2500/2504 OVC007 BECMG 2504/2507 21007KT TEMPO 2507/2511 RA OVC007=

    Metar: METAR LFOP 241430Z AUTO 01007KT 330V060 CAVOK 20/08 Q1022 NOSIG=

  • Evreux (LFOE)

    Taf: TAF LFOE 241400Z NIL=

    Metar: METAR LFOE 241430Z AUTO VRB07KT CAVOK 21/09 Q1022 NOSIG=

  • Erfurt/Bindersleben (EDDE)

    Taf: TAF EDDE 241100Z 2412/2512 03005KT 9999 BKN030 PROB30 TEMPO 2412/2416 RA BKN012 TEMPO 2502/2508 2000 -RADZ BR BKN008=

    Metar: METAR EDDE 241450Z 19005KT 9999 -RA FEW023 14/12 Q1019 RERA NOSIG=